Time;durP1;ratioP1;P1;durP2;ratioP2;P2;SDS_P1;SDS_P2;PMS_P1;PMS_P2;Temp;Humidity;BMP_temperature;BMP_pressure;BME280_temperature;BME280_humidity;BME280_pressure;Samples;Min_cycle;Max_cycle;Signal;HPM_P1;HPM_P2
2021/12/25 00:01:00;;;;;;;0.30;0.30;;;7.30;99.90;;;;;;5074840;28;20548;-67
2021/12/25 00:03:26;;;;;;;0.40;0.40;;;7.30;99.90;;;;;;5074514;28;20610;-67
2021/12/25 00:05:52;;;;;;;0.30;0.30;;;7.30;99.90;;;;;;5074781;28;20170;-67
2021/12/25 00:08:23;;;;;;;0.40;0.40;;;7.40;99.90;;;;;;5074439;28;20194;-67
2021/12/25 00:10:49;;;;;;;0.35;0.35;;;7.50;99.90;;;;;;5074506;28;20158;-67
2021/12/25 00:13:18;;;;;;;0.30;0.30;;;7.40;99.90;;;;;;5074485;28;20194;-67
2021/12/25 00:15:43;;;;;;;0.38;0.38;;;7.40;99.90;;;;;;5074349;28;20263;-67
2021/12/25 00:18:09;;;;;;;0.30;0.30;;;7.40;99.90;;;;;;5074213;28;20327;-67
2021/12/25 00:20:35;;;;;;;0.40;0.40;;;7.30;99.90;;;;;;5074273;28;20174;-67
2021/12/25 00:23:04;;;;;;;0.30;0.30;;;7.30;99.90;;;;;;5074152;28;20468;-67
2021/12/25 00:25:34;;;;;;;0.93;0.93;;;7.30;99.90;;;;;;5074133;28;20174;-66
2021/12/25 00:30:39;;;;;;;0.30;0.30;;;7.50;99.90;;;;;;5074245;28;20170;-67
2021/12/25 00:33:19;;;;;;;0.30;0.30;;;7.40;99.90;;;;;;5074201;28;20263;-67
2021/12/25 00:35:46;;;;;;;0.40;0.40;;;7.40;99.90;;;;;;5074231;28;20232;-67
2021/12/25 00:38:11;;;;;;;0.30;0.30;;;7.40;99.90;;;;;;5073846;28;20166;-66
2021/12/25 00:40:37;;;;;;;0.30;0.30;;;7.30;99.90;;;;;;5074080;28;20177;-67
2021/12/25 00:43:03;;;;;;;0.30;0.30;;;7.30;99.90;;;;;;5074010;28;20564;-66
2021/12/25 00:45:28;;;;;;;0.30;0.30;;;7.30;99.90;;;;;;5073842;28;20570;-67
2021/12/25 00:47:54;;;;;;;0.30;0.30;;;7.20;99.90;;;;;;5073591;28;20200;-67
2021/12/25 00:50:20;;;;;;;0.30;0.30;;;7.10;99.90;;;;;;5073316;28;20640;-67
2021/12/25 00:52:45;;;;;;;0.30;0.30;;;7.00;99.90;;;;;;5073907;28;20652;-67
2021/12/25 00:55:11;;;;;;;0.30;0.30;;;7.00;99.90;;;;;;5073767;28;20169;-67
2021/12/25 00:57:37;;;;;;;0.30;0.30;;;7.00;99.90;;;;;;5073775;28;20169;-67
2021/12/25 01:00:09;;;;;;;0.30;0.30;;;6.90;99.90;;;;;;5073381;28;20667;-67
2021/12/25 01:02:36;;;;;;;0.40;0.40;;;6.90;99.90;;;;;;5073797;28;20186;-67
2021/12/25 01:05:02;;;;;;;0.52;0.52;;;6.90;99.90;;;;;;5073580;28;20162;-67
2021/12/25 01:07:28;;;;;;;0.30;0.30;;;6.90;99.90;;;;;;5073684;28;20193;-67
2021/12/25 01:09:54;;;;;;;0.30;0.30;;;6.80;99.90;;;;;;5073525;28;20162;-67
2021/12/25 01:12:19;;;;;;;0.30;0.30;;;6.80;99.90;;;;;;5073663;28;20219;-67
2021/12/25 01:14:53;;;;;;;0.40;0.40;;;6.80;99.90;;;;;;5073419;28;20287;-67
2021/12/25 01:25:44;;;;;;;0.30;0.30;;;7.10;99.90;;;;;;5073681;28;20227;-67
2021/12/25 01:31:10;;;;;;;0.30;0.30;;;7.10;99.90;;;;;;5073362;28;20256;-67
2021/12/25 01:38:57;;;;;;;0.30;0.30;;;7.30;99.90;;;;;;5073301;28;20257;-66
2021/12/25 01:49:25;;;;;;;0.30;0.30;;;7.50;99.90;;;;;;5073035;28;20319;-66
2021/12/25 01:51:50;;;;;;;0.40;0.40;;;7.60;99.90;;;;;;5073217;28;20175;-67
2021/12/25 01:54:16;;;;;;;0.40;0.40;;;7.60;99.90;;;;;;5071793;28;20589;-67
2021/12/25 01:56:42;;;;;;;0.30;0.30;;;7.60;99.90;;;;;;5073302;28;20177;-67
2021/12/25 01:59:08;;;;;;;0.30;0.30;;;7.60;99.90;;;;;;5072798;28;20186;-67
2021/12/25 02:01:34;;;;;;;0.30;0.30;;;7.60;99.90;;;;;;5073846;28;20187;-67
2021/12/25 02:04:00;;;;;;;0.30;0.30;;;7.60;99.90;;;;;;5076991;28;20443;-67
2021/12/25 02:06:26;;;;;;;0.30;0.30;;;7.60;99.90;;;;;;5076727;28;20198;-67
2021/12/25 02:08:51;;;;;;;0.30;0.30;;;7.60;99.90;;;;;;5076652;28;20565;-66
2021/12/25 02:11:17;;;;;;;0.30;0.30;;;7.30;99.90;;;;;;5075538;28;20169;-67
2021/12/25 02:13:45;;;;;;;0.30;0.30;;;7.50;99.90;;;;;;5076680;28;20208;-66
2021/12/25 02:16:15;;;;;;;0.30;0.30;;;7.70;99.90;;;;;;5076790;28;20192;-67
2021/12/25 02:21:26;;;;;;;0.30;0.30;;;7.40;99.90;;;;;;5076646;28;20653;-67
2021/12/25 02:23:54;;;;;;;0.30;0.30;;;7.40;99.90;;;;;;5076597;28;20193;-66
2021/12/25 02:26:21;;;;;;;0.30;0.30;;;7.40;99.90;;;;;;5076479;28;20181;-66
2021/12/25 02:28:47;;;;;;;0.30;0.30;;;7.30;99.90;;;;;;5076377;28;20195;-67
2021/12/25 02:31:14;;;;;;;0.40;0.40;;;7.30;99.90;;;;;;5077057;28;20162;-67
2021/12/25 02:33:40;;;;;;;0.40;0.40;;;7.30;99.90;;;;;;5076440;28;20201;-67
2021/12/25 02:36:08;;;;;;;0.30;0.30;;;7.10;99.90;;;;;;5076558;28;20173;-67
2021/12/25 02:38:34;;;;;;;2.65;2.55;;;6.90;99.90;;;;;;5076229;28;20425;-67
2021/12/25 02:41:00;;;;;;;0.30;0.30;;;7.00;99.90;;;;;;5076544;28;20177;-67
2021/12/25 02:43:26;;;;;;;0.40;0.40;;;7.00;99.90;;;;;;5076299;28;20189;-67
2021/12/25 02:45:56;;;;;;;0.30;0.30;;;7.10;99.90;;;;;;5076201;28;20185;-67
2021/12/25 02:48:22;;;;;;;0.30;0.30;;;7.20;99.90;;;;;;5075800;28;20271;-66
2021/12/25 02:50:48;;;;;;;0.30;0.30;;;7.30;99.90;;;;;;5076066;28;20194;-66
2021/12/25 02:53:14;;;;;;;0.30;0.30;;;7.30;99.90;;;;;;5075870;28;20203;-66
2021/12/25 02:55:42;;;;;;;0.30;0.30;;;7.30;99.90;;;;;;5075953;28;20178;-67
2021/12/25 02:58:09;;;;;;;0.30;0.30;;;7.30;99.90;;;;;;5075867;28;20173;-67
2021/12/25 03:00:45;;;;;;;0.30;0.30;;;7.40;99.90;;;;;;5075650;28;20197;-66
2021/12/25 03:03:11;;;;;;;0.35;0.35;;;7.50;99.90;;;;;;5075807;28;20585;-67
2021/12/25 03:05:37;;;;;;;0.30;0.30;;;7.50;99.90;;;;;;5075879;28;20177;-67
2021/12/25 03:08:06;;;;;;;0.30;0.30;;;7.50;99.90;;;;;;5075585;28;20249;-66
2021/12/25 03:10:33;;;;;;;0.30;0.30;;;7.60;99.90;;;;;;5075837;28;20165;-67
2021/12/25 03:15:45;;;;;;;0.30;0.30;;;7.70;99.90;;;;;;5075414;28;20524;-66
2021/12/25 03:18:33;;;;;;;0.30;0.30;;;7.70;99.90;;;;;;5075587;28;20169;-66
2021/12/25 03:21:02;;;;;;;0.30;0.30;;;7.70;99.90;;;;;;5075775;28;20192;-67
2021/12/25 03:23:30;;;;;;;0.30;0.30;;;7.60;99.90;;;;;;5075369;28;20301;-67
2021/12/25 03:25:58;;;;;;;0.30;0.30;;;7.60;99.90;;;;;;5075367;28;20176;-67
2021/12/25 03:28:29;;;;;;;0.30;0.30;;;7.70;99.90;;;;;;5075080;28;20538;-67
2021/12/25 03:30:58;;;;;;;0.30;0.30;;;7.70;99.90;;;;;;5074047;28;20631;-67
2021/12/25 03:33:25;;;;;;;0.30;0.30;;;7.70;99.90;;;;;;5075218;28;20227;-67
2021/12/25 03:35:50;;;;;;;0.30;0.30;;;7.80;99.90;;;;;;5075200;28;20169;-66
2021/12/25 03:38:20;;;;;;;0.30;0.30;;;7.70;99.90;;;;;;5075137;28;20647;-67
2021/12/25 03:40:47;;;;;;;0.40;0.40;;;7.60;99.90;;;;;;5075333;28;20205;-67
2021/12/25 03:43:13;;;;;;;0.43;0.43;;;7.60;99.90;;;;;;5074990;28;20284;-67
2021/12/25 03:45:39;;;;;;;0.30;0.30;;;7.60;99.90;;;;;;5075044;28;20252;-66
2021/12/25 03:48:11;;;;;;;0.40;0.40;;;7.70;99.90;;;;;;5074908;28;20223;-67
2021/12/25 03:53:38;;;;;;;0.30;0.30;;;7.70;99.90;;;;;;5075274;28;20742;-67
2021/12/25 03:58:52;;;;;;;0.30;0.30;;;7.70;99.90;;;;;;5074822;28;20282;-67
2021/12/25 04:04:02;;;;;;;0.30;0.30;;;7.90;99.90;;;;;;5074910;28;20221;-67
2021/12/25 04:06:28;;;;;;;0.30;0.30;;;7.90;99.90;;;;;;5074663;28;20682;-67
2021/12/25 04:08:54;;;;;;;0.30;0.30;;;7.90;99.90;;;;;;5074421;28;20373;-67
2021/12/25 04:11:28;;;;;;;0.70;0.70;;;8.00;99.90;;;;;;5074671;28;20650;-67
2021/12/25 04:13:55;;;;;;;0.40;0.40;;;8.00;99.90;;;;;;5074609;28;20824;-67
2021/12/25 04:16:22;;;;;;;0.40;0.40;;;8.00;99.90;;;;;;5074419;28;20180;-67
2021/12/25 04:18:47;;;;;;;0.30;0.30;;;8.10;99.90;;;;;;5074126;28;20175;-67
2021/12/25 04:21:13;;;;;;;0.30;0.30;;;8.10;99.90;;;;;;5074278;28;20176;-67
2021/12/25 04:23:41;;;;;;;0.30;0.30;;;8.20;99.90;;;;;;5074386;28;20197;-66
2021/12/25 04:26:07;;;;;;;0.30;0.30;;;8.10;99.90;;;;;;5074075;28;20226;-67
2021/12/25 05:04:00;;;;;;;0.32;0.32;;;8.10;99.90;;;;;;5073604;28;20239;-66
2021/12/25 05:06:25;;;;;;;0.30;0.30;;;8.20;99.90;;;;;;5073580;28;20172;-67
2021/12/25 05:08:53;;;;;;;0.30;0.30;;;8.30;99.90;;;;;;5073348;28;20175;-67
2021/12/25 05:11:19;;;;;;;0.30;0.30;;;8.30;99.90;;;;;;5073636;28;20258;-66
2021/12/25 05:13:46;;;;;;;0.30;0.30;;;8.20;99.90;;;;;;5073510;28;20286;-67
2021/12/25 05:16:12;;;;;;;0.30;0.30;;;8.20;99.90;;;;;;5073444;28;20504;-67
2021/12/25 05:18:38;;;;;;;0.30;0.30;;;8.30;99.90;;;;;;5073348;28;20175;-67
2021/12/25 05:21:04;;;;;;;0.30;0.30;;;8.20;99.90;;;;;;5073640;28;20177;-67
2021/12/25 05:23:30;;;;;;;0.30;0.30;;;8.30;99.90;;;;;;5073419;28;20229;-66
2021/12/25 05:25:55;;;;;;;0.40;0.40;;;8.40;99.90;;;;;;5073501;28;20170;-67
2021/12/25 05:28:26;;;;;;;0.40;0.40;;;8.00;99.90;;;;;;5073293;28;20808;-67
2021/12/25 05:30:53;;;;;;;0.30;0.30;;;8.20;99.90;;;;;;5073583;28;20252;-67
2021/12/25 05:33:20;;;;;;;0.30;0.30;;;8.00;99.90;;;;;;5073413;28;20226;-67
2021/12/25 05:35:46;;;;;;;0.30;0.30;;;8.20;99.90;;;;;;5073371;28;20168;-66
2021/12/25 05:38:14;;;;;;;0.30;0.30;;;8.20;99.90;;;;;;5076529;28;20210;-67
2021/12/25 05:40:44;;;;;;;0.30;0.30;;;8.20;99.90;;;;;;5077576;28;20737;-67
2021/12/25 05:43:10;;;;;;;0.30;0.30;;;8.20;99.90;;;;;;5077466;28;20199;-67
2021/12/25 05:45:36;;;;;;;0.30;0.30;;;8.20;99.90;;;;;;5077335;28;20668;-67
2021/12/25 05:48:01;;;;;;;0.40;0.40;;;8.20;99.90;;;;;;5077066;28;20516;-67
2021/12/25 05:50:27;;;;;;;0.30;0.30;;;8.30;99.90;;;;;;5077295;28;20196;-67
2021/12/25 05:52:55;;;;;;;0.30;0.30;;;8.30;99.90;;;;;;5077199;28;20258;-66
2021/12/25 05:55:22;;;;;;;0.30;0.30;;;8.30;99.90;;;;;;5077647;28;20159;-67
2021/12/25 05:57:47;;;;;;;0.30;0.30;;;8.20;99.90;;;;;;5077181;28;20632;-67
2021/12/25 06:00:13;;;;;;;0.30;0.30;;;8.10;99.90;;;;;;5077226;28;20204;-67
2021/12/25 06:02:39;;;;;;;0.30;0.30;;;8.10;99.90;;;;;;5076907;28;20591;-67
2021/12/25 06:05:06;;;;;;;0.30;0.30;;;7.90;99.90;;;;;;5077063;28;20175;-67
2021/12/25 06:07:32;;;;;;;0.40;0.40;;;8.00;99.90;;;;;;5076941;28;20230;-67
2021/12/25 06:09:58;;;;;;;0.30;0.30;;;7.90;99.90;;;;;;5076801;28;20178;-67
2021/12/25 06:12:24;;;;;;;0.30;0.30;;;7.80;99.90;;;;;;5076931;28;20406;-67
2021/12/25 06:14:52;;;;;;;0.30;0.30;;;7.80;99.90;;;;;;5076626;28;20525;-67
2021/12/25 06:17:18;;;;;;;0.30;0.30;;;7.80;99.90;;;;;;5075459;28;20183;-67
2021/12/25 06:19:44;;;;;;;0.30;0.30;;;7.90;99.90;;;;;;5076611;28;20172;-66
2021/12/25 06:22:09;;;;;;;0.30;0.30;;;7.90;99.90;;;;;;5076702;28;20449;-66
2021/12/25 06:24:35;;;;;;;0.30;0.30;;;8.00;99.90;;;;;;5076506;28;20204;-67
2021/12/25 06:27:01;;;;;;;0.30;0.30;;;8.00;99.90;;;;;;5076507;28;20196;-67
2021/12/25 06:29:26;;;;;;;0.30;0.30;;;8.00;99.90;;;;;;5076290;28;20401;-67
2021/12/25 06:31:52;;;;;;;0.40;0.40;;;7.90;99.90;;;;;;5076584;28;20166;-67
2021/12/25 06:34:19;;;;;;;0.30;0.30;;;7.90;99.90;;;;;;5076371;28;20270;-67
2021/12/25 06:36:45;;;;;;;0.55;0.55;;;8.00;99.90;;;;;;5076491;28;20414;-66
2021/12/25 06:39:14;;;;;;;0.30;0.30;;;8.00;99.90;;;;;;5076164;28;20739;-67
2021/12/25 06:41:40;;;;;;;0.30;0.30;;;8.20;99.90;;;;;;5076801;28;20405;-67
2021/12/25 06:44:06;;;;;;;0.30;0.30;;;8.00;99.90;;;;;;5076230;28;20188;-67
2021/12/25 06:46:32;;;;;;;0.30;0.30;;;8.00;99.90;;;;;;5076111;28;20209;-67
2021/12/25 06:48:58;;;;;;;0.30;0.30;;;8.00;99.90;;;;;;5074570;28;20795;-67
2021/12/25 06:51:23;;;;;;;0.30;0.30;;;8.10;99.90;;;;;;5076101;28;20413;-66
2021/12/25 06:53:49;;;;;;;0.30;0.30;;;8.10;99.90;;;;;;5075933;28;20201;-67
2021/12/25 06:56:15;;;;;;;0.30;0.30;;;8.20;99.90;;;;;;5075899;28;20410;-67
2021/12/25 06:58:41;;;;;;;0.30;0.30;;;8.20;99.90;;;;;;5075617;28;20171;-67
2021/12/25 07:01:07;;;;;;;0.30;0.30;;;8.20;99.90;;;;;;5075951;28;20251;-67
2021/12/25 07:03:32;;;;;;;0.30;0.30;;;8.10;99.90;;;;;;5075922;28;20661;-66
2021/12/25 07:05:58;;;;;;;0.30;0.30;;;8.00;99.90;;;;;;5075941;28;20195;-66
2021/12/25 07:08:24;;;;;;;0.30;0.30;;;8.00;99.90;;;;;;5075529;28;20575;-67
2021/12/25 07:10:50;;;;;;;0.30;0.30;;;8.00;99.90;;;;;;5075590;28;20175;-67
2021/12/25 07:13:18;;;;;;;0.30;0.30;;;8.00;99.90;;;;;;5075548;28;20200;-67
2021/12/25 07:15:45;;;;;;;0.30;0.30;;;7.90;99.90;;;;;;5075612;28;20630;-67
2021/12/25 07:18:11;;;;;;;0.30;0.30;;;7.90;99.90;;;;;;5075360;28;20272;-67
2021/12/25 07:20:36;;;;;;;1.07;1.07;;;7.80;99.90;;;;;;5075623;28;20198;-67
2021/12/25 07:23:02;;;;;;;0.30;0.30;;;7.80;99.90;;;;;;5075499;28;20190;-67
2021/12/25 07:25:28;;;;;;;0.30;0.30;;;7.80;99.90;;;;;;5075538;28;20175;-67
2021/12/25 07:27:53;;;;;;;0.30;0.30;;;7.80;99.90;;;;;;5075266;28;20708;-67
2021/12/25 07:30:19;;;;;;;0.50;0.50;;;8.00;99.90;;;;;;5075333;28;20699;-67
2021/12/25 07:32:45;;;;;;;0.30;0.30;;;7.70;99.90;;;;;;5075286;28;20167;-66
2021/12/25 07:35:11;;;;;;;0.30;0.30;;;7.90;99.90;;;;;;5075195;28;20629;-67
2021/12/25 07:37:36;;;;;;;0.30;0.30;;;7.90;99.90;;;;;;5075268;28;20180;-66
2021/12/25 07:40:04;;;;;;;0.30;0.30;;;8.00;99.90;;;;;;5074856;28;20411;-67
2021/12/25 07:42:30;;;;;;;0.30;0.30;;;8.00;99.90;;;;;;5074946;28;20178;-67
2021/12/25 07:45:03;;;;;;;0.30;0.30;;;8.00;99.90;;;;;;5073710;28;20175;-67
2021/12/25 07:47:30;;;;;;;0.30;0.30;;;8.10;99.90;;;;;;5075042;28;20287;-67
2021/12/25 07:49:58;;;;;;;0.30;0.30;;;8.20;99.90;;;;;;5074771;28;20172;-67
2021/12/25 07:52:24;;;;;;;0.30;0.30;;;8.10;99.90;;;;;;5074967;28;20195;-66
2021/12/25 07:54:50;;;;;;;0.30;0.30;;;8.20;99.90;;;;;;5074680;28;20709;-67
2021/12/25 07:57:15;;;;;;;0.30;0.30;;;8.20;99.90;;;;;;5074965;28;20297;-67
2021/12/25 07:59:41;;;;;;;0.30;0.30;;;8.00;99.90;;;;;;5074180;28;20283;-67
2021/12/25 08:02:08;;;;;;;0.30;0.30;;;8.00;99.90;;;;;;5074798;28;20174;-66
2021/12/25 08:04:33;;;;;;;0.50;0.50;;;8.30;99.90;;;;;;5074567;28;20191;-67
2021/12/25 08:06:59;;;;;;;0.40;0.40;;;8.30;99.90;;;;;;5074624;28;20207;-67
2021/12/25 08:09:31;;;;;;;0.30;0.30;;;8.40;99.90;;;;;;5074442;28;20201;-67
2021/12/25 08:11:59;;;;;;;1.73;1.63;;;8.50;99.90;;;;;;5074527;28;20252;-67
2021/12/25 08:14:25;;;;;;;0.30;0.30;;;8.40;99.90;;;;;;5074330;28;20687;-67
2021/12/25 08:16:59;;;;;;;0.30;0.30;;;8.20;99.90;;;;;;5074460;28;20171;-67
2021/12/25 08:19:25;;;;;;;0.32;0.32;;;8.20;99.90;;;;;;5074039;28;20710;-67
2021/12/25 08:21:51;;;;;;;0.30;0.30;;;8.30;99.90;;;;;;5074179;28;20176;-67
2021/12/25 08:24:18;;;;;;;0.30;0.30;;;8.30;99.90;;;;;;5074110;28;20457;-67
2021/12/25 08:26:45;;;;;;;0.30;0.30;;;8.30;99.90;;;;;;5074199;28;20203;-67
2021/12/25 08:29:12;;;;;;;0.30;0.30;;;8.30;99.90;;;;;;5074022;28;20543;-67
2021/12/25 08:31:38;;;;;;;0.30;0.30;;;8.40;99.90;;;;;;5074244;28;20188;-67
2021/12/25 08:34:04;;;;;;;0.30;0.30;;;8.50;99.90;;;;;;5073999;28;20256;-67
2021/12/25 08:36:30;;;;;;;0.30;0.30;;;8.60;99.90;;;;;;5074439;28;20169;-67
2021/12/25 08:38:55;;;;;;;0.30;0.30;;;8.60;99.90;;;;;;5073844;28;20173;-67
2021/12/25 08:41:25;;;;;;;0.30;0.30;;;8.60;99.90;;;;;;5074109;28;20177;-67
2021/12/25 08:43:57;;;;;;;0.30;0.30;;;8.70;99.90;;;;;;5073871;28;20186;-67
2021/12/25 08:46:42;;;;;;;0.30;0.30;;;8.70;99.90;;;;;;5073728;28;20165;-67
2021/12/25 08:49:10;;;;;;;0.30;0.30;;;8.70;99.90;;;;;;5073765;28;20578;-67
2021/12/25 08:51:36;;;;;;;0.40;0.40;;;8.80;99.90;;;;;;5073803;28;20173;-67
2021/12/25 08:54:02;;;;;;;0.30;0.30;;;8.80;99.90;;;;;;5073580;28;20265;-67
2021/12/25 08:56:28;;;;;;;0.50;0.50;;;8.80;99.90;;;;;;5073801;28;20411;-67
2021/12/25 08:58:54;;;;;;;0.30;0.30;;;8.90;99.90;;;;;;5073454;28;20194;-67
2021/12/25 09:01:19;;;;;;;0.30;0.30;;;8.80;99.90;;;;;;5073872;28;20384;-67
2021/12/25 09:03:45;;;;;;;0.30;0.30;;;8.90;99.90;;;;;;5073704;28;20278;-67
2021/12/25 09:06:11;;;;;;;0.30;0.30;;;8.90;99.90;;;;;;5073605;28;20157;-67
2021/12/25 09:08:36;;;;;;;0.50;0.50;;;8.90;99.90;;;;;;5073218;28;20238;-67
2021/12/25 09:11:02;;;;;;;0.30;0.30;;;9.00;99.90;;;;;;5073202;28;20214;-67
2021/12/25 09:13:28;;;;;;;0.30;0.30;;;9.10;99.90;;;;;;5073244;28;20278;-67
2021/12/25 09:15:54;;;;;;;0.30;0.30;;;9.00;99.90;;;;;;5073409;28;20403;-67
2021/12/25 09:18:19;;;;;;;0.37;0.37;;;8.90;99.90;;;;;;5073219;28;20411;-67
2021/12/25 09:20:45;;;;;;;0.30;0.30;;;8.80;99.90;;;;;;5073617;28;20180;-67
2021/12/25 09:23:12;;;;;;;0.30;0.30;;;9.00;99.90;;;;;;5073583;28;20188;-67
2021/12/25 09:25:37;;;;;;;0.30;0.30;;;9.00;99.90;;;;;;5072040;28;20778;-67
2021/12/25 09:28:03;;;;;;;0.30;0.30;;;9.00;99.90;;;;;;5073174;28;20209;-67
2021/12/25 09:30:29;;;;;;;0.30;0.30;;;9.00;99.90;;;;;;5073287;28;20775;-67
2021/12/25 09:32:54;;;;;;;0.30;0.30;;;9.00;99.90;;;;;;5073293;28;20521;-67
2021/12/25 09:35:21;;;;;;;0.30;0.30;;;9.00;99.90;;;;;;5073261;28;20252;-67
2021/12/25 09:37:47;;;;;;;0.30;0.30;;;9.00;99.90;;;;;;5073462;28;20180;-67
2021/12/25 09:40:13;;;;;;;0.30;0.30;;;9.10;99.90;;;;;;5073098;28;20179;-67
2021/12/25 09:42:40;;;;;;;0.40;0.40;;;9.00;99.90;;;;;;5073238;28;20168;-67
2021/12/25 09:45:07;;;;;;;0.30;0.30;;;8.90;99.90;;;;;;5072936;28;20485;-66
2021/12/25 09:47:33;;;;;;;0.30;0.30;;;8.80;99.90;;;;;;5073030;28;20606;-69
2021/12/25 09:49:59;;;;;;;0.30;0.30;;;8.80;99.90;;;;;;5073011;28;20236;-69
2021/12/25 09:52:24;;;;;;;0.40;0.40;;;8.80;99.90;;;;;;5073212;28;20172;-66
2021/12/25 09:54:50;;;;;;;0.30;0.30;;;8.80;99.90;;;;;;5073012;28;20192;-67
2021/12/25 09:57:16;;;;;;;0.40;0.40;;;8.90;99.90;;;;;;5073200;28;20181;-67
2021/12/25 09:59:42;;;;;;;0.30;0.30;;;8.90;99.90;;;;;;5072804;28;20188;-67
2021/12/25 10:02:15;;;;;;;1.90;1.73;;;8.90;99.90;;;;;;5073060;28;20532;-67
2021/12/25 10:04:45;;;;;;;0.30;0.30;;;9.00;99.90;;;;;;5072885;28;20202;-67
2021/12/25 10:07:24;;;;;;;0.30;0.30;;;8.90;99.90;;;;;;5073033;28;20198;-67
2021/12/25 10:10:16;;;;;;;0.30;0.30;;;9.00;99.90;;;;;;5072678;28;20197;-66
2021/12/25 10:12:50;;;;;;;0.30;0.30;;;8.50;99.90;;;;;;5072919;28;20168;-67
2021/12/25 10:15:23;;;;;;;0.30;0.30;;;8.70;99.90;;;;;;5072879;28;20196;-67
2021/12/25 10:17:54;;;;;;;0.30;0.30;;;8.70;99.90;;;;;;5073120;28;20195;-67
2021/12/25 10:20:28;;;;;;;0.30;0.30;;;8.70;99.90;;;;;;5073059;28;20684;-67
2021/12/25 10:23:15;;;;;;;0.30;0.30;;;8.70;99.90;;;;;;5073943;28;20198;-67
2021/12/25 10:25:45;;;;;;;0.30;0.30;;;8.60;99.90;;;;;;5076637;28;20152;-67
2021/12/25 10:28:12;;;;;;;0.30;0.30;;;8.70;99.90;;;;;;5076426;28;20533;-67
2021/12/25 10:30:45;;;;;;;0.30;0.30;;;8.60;99.90;;;;;;5076577;28;20178;-67
2021/12/25 10:33:35;;;;;;;0.30;0.30;;;8.60;99.90;;;;;;5076286;28;20188;-66
2021/12/25 10:36:05;;;;;;;0.30;0.30;;;8.60;99.90;;;;;;5076415;28;20171;-67
2021/12/25 10:38:31;;;;;;;0.30;0.30;;;8.70;99.90;;;;;;5076213;28;20185;-67
2021/12/25 10:41:20;;;;;;;0.30;0.30;;;8.60;99.90;;;;;;5076453;28;20210;-67
2021/12/25 10:43:47;;;;;;;0.30;0.30;;;8.40;99.90;;;;;;5076353;28;20601;-67
2021/12/25 10:46:13;;;;;;;0.30;0.30;;;8.60;99.90;;;;;;5076236;28;20169;-67
2021/12/25 10:48:39;;;;;;;0.40;0.40;;;8.30;99.90;;;;;;5075877;28;20281;-67
2021/12/25 10:51:05;;;;;;;0.40;0.40;;;8.30;99.90;;;;;;5076226;28;20518;-67
2021/12/25 10:53:43;;;;;;;0.30;0.30;;;8.30;99.90;;;;;;5076008;28;20726;-67
2021/12/25 10:56:12;;;;;;;0.30;0.30;;;8.30;99.90;;;;;;5076281;28;20613;-67
2021/12/25 10:58:39;;;;;;;0.30;0.30;;;8.20;99.80;;;;;;5075736;28;20616;-67
2021/12/25 11:01:08;;;;;;;0.40;0.40;;;8.20;99.90;;;;;;5075913;28;20175;-67
2021/12/25 11:03:39;;;;;;;0.30;0.30;;;8.20;99.90;;;;;;5075909;28;20213;-67
2021/12/25 11:06:13;;;;;;;0.30;0.30;;;8.30;99.90;;;;;;5075736;28;20213;-67
2021/12/25 11:08:40;;;;;;;0.30;0.30;;;8.40;99.90;;;;;;5075713;28;20238;-67
2021/12/25 11:11:06;;;;;;;0.30;0.30;;;8.40;99.90;;;;;;5075790;28;20209;-67
2021/12/25 11:13:37;;;;;;;0.40;0.40;;;8.40;99.80;;;;;;5075564;28;20306;-67
2021/12/25 11:16:12;;;;;;;0.30;0.30;;;8.30;99.70;;;;;;5075680;28;20199;-67
2021/12/25 11:19:12;;;;;;;0.30;0.30;;;8.50;99.70;;;;;;5075516;28;20167;-67
2021/12/25 11:21:59;;;;;;;0.30;0.30;;;8.20;99.70;;;;;;5075749;28;20210;-66
2021/12/25 11:24:30;;;;;;;0.30;0.30;;;8.20;99.90;;;;;;5075440;28;20299;-67
2021/12/25 11:26:59;;;;;;;0.30;0.30;;;8.20;99.90;;;;;;5075500;28;20247;-67
2021/12/25 11:29:28;;;;;;;0.30;0.30;;;8.10;99.90;;;;;;5075260;28;20284;-67
2021/12/25 11:31:55;;;;;;;0.30;0.30;;;8.20;99.90;;;;;;5075521;28;20535;-66
2021/12/25 11:34:22;;;;;;;0.30;0.30;;;8.20;99.90;;;;;;5074478;28;20201;-67
2021/12/25 11:36:51;;;;;;;0.40;0.40;;;8.20;99.90;;;;;;5075344;28;20572;-67
2021/12/25 11:39:23;;;;;;;0.30;0.30;;;8.30;99.90;;;;;;5074896;28;20176;-67
2021/12/25 11:41:54;;;;;;;0.30;0.30;;;8.30;99.90;;;;;;5075168;28;20203;-67
2021/12/25 11:44:28;;;;;;;0.30;0.30;;;8.40;99.90;;;;;;5075108;28;20200;-67
2021/12/25 11:46:54;;;;;;;0.30;0.30;;;8.30;99.60;;;;;;5075083;28;20245;-67
2021/12/25 11:49:19;;;;;;;0.30;0.30;;;8.30;99.50;;;;;;5074774;28;20180;-67
2021/12/25 11:51:46;;;;;;;0.30;0.30;;;8.40;99.80;;;;;;5075051;28;20164;-67
2021/12/25 11:57:48;;;;;;;0.30;0.30;;;8.60;99.90;;;;;;5074957;28;20218;-67
2021/12/25 11:59:51;;;;;;;0.38;0.38;;;8.60;99.70;;;;;;5076635;28;20204;-66
2021/12/25 12:02:39;;;;;;;0.30;0.30;;;8.80;99.30;;;;;;5074775;28;20267;-67
2021/12/25 12:05:27;;;;;;;0.30;0.30;;;8.80;98.90;;;;;;5074981;28;20577;-67
2021/12/25 12:08:12;;;;;;;0.30;0.30;;;8.80;98.70;;;;;;5074441;28;20580;-67
2021/12/25 12:10:48;;;;;;;0.40;0.40;;;8.70;98.20;;;;;;5074654;28;20214;-66
2021/12/25 12:13:15;;;;;;;0.30;0.30;;;8.70;99.20;;;;;;5074811;28;20284;-67
2021/12/25 12:15:51;;;;;;;0.30;0.30;;;8.80;99.40;;;;;;5074451;28;20633;-67
2021/12/25 12:18:26;;;;;;;0.30;0.30;;;8.80;99.60;;;;;;5074326;28;20721;-67
2021/12/25 12:21:01;;;;;;;0.65;0.65;;;8.90;99.30;;;;;;5074519;28;20538;-67
2021/12/25 12:23:53;;;;;;;0.30;0.30;;;8.80;99.30;;;;;;5074552;28;20199;-67
2021/12/25 12:26:44;;;;;;;0.30;0.30;;;8.60;99.40;;;;;;5074533;28;20171;-67
2021/12/25 12:29:11;;;;;;;0.30;0.30;;;8.60;99.80;;;;;;5073980;28;20175;-66
2021/12/25 12:31:47;;;;;;;0.32;0.32;;;8.60;99.70;;;;;;5074226;28;20192;-67
2021/12/25 12:34:37;;;;;;;0.30;0.30;;;8.70;99.60;;;;;;5074089;28;20197;-67
2021/12/25 12:37:15;;;;;;;0.30;0.30;;;8.60;98.90;;;;;;5074214;28;20532;-67
2021/12/25 12:39:41;;;;;;;0.30;0.30;;;8.60;99.00;;;;;;5073775;28;20531;-67
2021/12/25 12:42:11;;;;;;;0.30;0.30;;;8.60;99.10;;;;;;5073957;28;20168;-67
2021/12/25 12:44:37;;;;;;;0.30;0.30;;;8.60;99.20;;;;;;5073861;28;20199;-67
2021/12/25 12:47:19;;;;;;;0.40;0.40;;;8.60;99.40;;;;;;5073883;28;20209;-67
2021/12/25 12:49:45;;;;;;;0.30;0.30;;;8.60;99.20;;;;;;5073874;28;20250;-67
2021/12/25 12:52:26;;;;;;;0.30;0.30;;;8.60;99.40;;;;;;5073980;28;20630;-67
2021/12/25 12:54:57;;;;;;;0.30;0.30;;;8.60;99.50;;;;;;5074128;28;20187;-67
2021/12/25 12:57:45;;;;;;;0.75;0.75;;;8.70;99.30;;;;;;5073801;28;20176;-67
2021/12/25 13:00:19;;;;;;;0.30;0.30;;;8.70;99.50;;;;;;5073424;28;20560;-67
2021/12/25 13:02:56;;;;;;;0.30;0.30;;;8.50;99.50;;;;;;5073832;28;20216;-67
2021/12/25 13:05:24;;;;;;;0.30;0.30;;;8.50;99.50;;;;;;5074080;28;20262;-67
2021/12/25 13:07:53;;;;;;;0.55;0.55;;;8.60;99.50;;;;;;5073723;28;20299;-67
2021/12/25 13:10:25;;;;;;;0.30;0.30;;;8.50;99.40;;;;;;5073737;28;20174;-67
2021/12/25 13:12:56;;;;;;;0.95;0.95;;;8.50;99.60;;;;;;5073821;28;20194;-67
2021/12/25 13:15:32;;;;;;;0.30;0.30;;;8.60;99.70;;;;;;5073543;28;20162;-67
2021/12/25 13:18:01;;;;;;;0.30;0.30;;;8.60;99.20;;;;;;5073579;28;20176;-67
2021/12/25 13:20:38;;;;;;;0.30;0.30;;;8.60;99.30;;;;;;5073586;28;20177;-67
2021/12/25 13:23:07;;;;;;;0.30;0.30;;;8.60;99.20;;;;;;5073572;28;20199;-67
2021/12/25 13:25:33;;;;;;;0.32;0.32;;;8.60;99.10;;;;;;5074102;28;20228;-67
2021/12/25 13:28:03;;;;;;;0.30;0.30;;;8.60;98.90;;;;;;5073397;28;20663;-67
2021/12/25 13:30:30;;;;;;;0.40;0.40;;;8.60;99.20;;;;;;5073360;28;20179;-67
2021/12/25 13:33:13;;;;;;;0.30;0.30;;;8.50;99.20;;;;;;5073357;28;20201;-67
2021/12/25 13:35:40;;;;;;;0.38;0.38;;;8.50;99.30;;;;;;5073458;28;20168;-67
2021/12/25 13:38:06;;;;;;;0.30;0.30;;;8.50;99.30;;;;;;5073277;28;20206;-67
2021/12/25 13:40:33;;;;;;;0.30;0.30;;;8.40;99.40;;;;;;5073467;28;20179;-67
2021/12/25 13:43:10;;;;;;;0.30;0.30;;;8.40;99.20;;;;;;5073238;28;20199;-66
2021/12/25 13:45:37;;;;;;;0.40;0.40;;;8.40;99.20;;;;;;5073227;28;20175;-67
2021/12/25 13:48:04;;;;;;;0.70;0.70;;;8.30;99.30;;;;;;5073155;28;20199;-66
2021/12/25 13:50:30;;;;;;;0.30;0.30;;;8.20;99.30;;;;;;5073348;28;20177;-67
2021/12/25 13:53:00;;;;;;;0.43;0.43;;;8.20;99.70;;;;;;5073563;28;20202;-67
2021/12/25 13:55:32;;;;;;;0.32;0.32;;;8.20;99.90;;;;;;5073273;28;20162;-67
2021/12/25 13:58:09;;;;;;;0.30;0.30;;;8.20;99.90;;;;;;5074318;28;20198;-67
2021/12/25 14:00:44;;;;;;;0.40;0.40;;;8.30;99.90;;;;;;5077170;28;20181;-67
2021/12/25 14:03:14;;;;;;;0.30;0.30;;;8.30;99.90;;;;;;5077153;28;20220;-67
2021/12/25 14:05:43;;;;;;;0.40;0.40;;;8.30;99.90;;;;;;5076962;28;20578;-67
2021/12/25 14:08:10;;;;;;;0.30;0.30;;;8.30;99.70;;;;;;5077055;28;20209;-66
2021/12/25 14:10:38;;;;;;;0.30;0.30;;;8.40;99.90;;;;;;5076994;28;20171;-67
2021/12/25 14:13:09;;;;;;;0.30;0.30;;;8.40;99.90;;;;;;5076684;28;20197;-67
2021/12/25 14:15:37;;;;;;;0.30;0.30;;;8.40;99.90;;;;;;5076751;28;20230;-67
2021/12/25 14:18:06;;;;;;;0.40;0.40;;;8.40;99.60;;;;;;5076549;28;20175;-67
2021/12/25 14:20:35;;;;;;;0.40;0.40;;;8.40;99.50;;;;;;5076729;28;20198;-66
2021/12/25 14:23:04;;;;;;;0.30;0.30;;;8.40;99.30;;;;;;5076719;28;20257;-67
2021/12/25 14:25:34;;;;;;;0.30;0.30;;;8.30;99.60;;;;;;5076703;28;20176;-67